Etusivu
METAR-TAF:

METAR-TAF

Lentoasemat :

Waterloo, Ontario, Kanada

Leveyspiiri: 43-28N, Pituuspiiri: 080-23W, korkeus merenpinnasta: 317 m

Tämänhetkinen sää

Tämä raportti tehtiin 35 minuuttia sitten, kello 07.00 UTC
Tuuli 6 kn luoteesta
Lämpötila 1°C
Kosteus 69%
Ilmanpaine 1015 hPa
Näkyvyys: 14.5 km
selkeää

METAR: CYKF 020700Z AUTO 31006KT 9SM CLR 01/M04 A2997 RMK SLP159

Aika: 03:35 (07:35 UTC)

Sääennuste

Tämä raportti tehtiin 5 tuntia ja 57 minuuttia sitten, kello 01.38 UTC
Ennuste voimassa 02. päivästä klo 02 UTC - 02. päivään klo 14 UTC
Tuuli 7 kn luoteesta
Näkyvyys: 10 km
Muutamia pilviä 6000 ft:n korkeudessa
Ajoittain
02. päivästä klo 02 UTC - 02. päivään klo 08 UTC
Hajonneita pilviä 6000 ft:n korkeudessa

TAF: CYKF 020138Z 0202/0214 32007KT P6SM FEW060 TEMPO 0202/0208 BKN060 RMK FCST BASED ON AUTO OBS. NXT FCST BY 020800Z

Säähavainnot ja -ennusteet yli 4000 lentoasemalta (METAR- ja TAF-raportit).

Käytössä olevat sääasemat on merkitty karttaan keltaisilla ja punaisilla pisteillä.

Aseta hiiri pisteen päälle nähdäksesi sääaseman nimen.

Klikkaa sitten nähdäksesi säähavainnot ja -ennusteet.

Kartan vaihtaminen: klikkaa mustalla rastilla varustettuja vihreitä pisteitä, niin voit zoomata sisään; viivalla varustettua vihreää pistettä, niin voit zoomata ulos tai vihreitä nuolia, niin pääset viereisille kartoille.


METAR-TAF: